sensor_id;sensor_type;location;lat;lon;timestamp;P1;durP1;ratioP1;P2;durP2;ratioP2
21330;SDS011;10824;51.632;4.950;2022-12-16T00:00:05;35.53;;;12.80;;
21330;SDS011;10824;51.632;4.950;2022-12-16T00:02:35;32.97;;;10.98;;
21330;SDS011;10824;51.632;4.950;2022-12-16T00:05:02;30.08;;;13.32;;
21330;SDS011;10824;51.632;4.950;2022-12-16T00:07:30;30.23;;;12.18;;
21330;SDS011;10824;51.632;4.950;2022-12-16T00:09:57;20.85;;;11.02;;
21330;SDS011;10824;51.632;4.950;2022-12-16T00:12:24;17.50;;;10.88;;
21330;SDS011;10824;51.632;4.950;2022-12-16T00:14:50;27.70;;;9.82;;
21330;SDS011;10824;51.632;4.950;2022-12-16T00:17:20;20.20;;;12.45;;
21330;SDS011;10824;51.632;4.950;2022-12-16T00:19:46;20.73;;;11.00;;
21330;SDS011;10824;51.632;4.950;2022-12-16T00:22:13;22.45;;;9.55;;
21330;SDS011;10824;51.632;4.950;2022-12-16T00:24:40;20.98;;;8.48;;
21330;SDS011;10824;51.632;4.950;2022-12-16T00:27:07;16.98;;;8.55;;
21330;SDS011;10824;51.632;4.950;2022-12-16T00:29:35;19.02;;;10.05;;
21330;SDS011;10824;51.632;4.950;2022-12-16T00:32:02;19.35;;;11.13;;
21330;SDS011;10824;51.632;4.950;2022-12-16T00:34:29;33.45;;;10.90;;
21330;SDS011;10824;51.632;4.950;2022-12-16T00:36:56;19.85;;;9.18;;
21330;SDS011;10824;51.632;4.950;2022-12-16T00:39:23;25.73;;;11.20;;
21330;SDS011;10824;51.632;4.950;2022-12-16T00:41:50;20.30;;;11.73;;
21330;SDS011;10824;51.632;4.950;2022-12-16T00:44:17;21.17;;;8.10;;
21330;SDS011;10824;51.632;4.950;2022-12-16T00:46:44;24.65;;;10.82;;
21330;SDS011;10824;51.632;4.950;2022-12-16T00:49:11;22.00;;;10.18;;
21330;SDS011;10824;51.632;4.950;2022-12-16T00:51:38;26.40;;;13.52;;
21330;SDS011;10824;51.632;4.950;2022-12-16T00:54:05;24.42;;;12.30;;
21330;SDS011;10824;51.632;4.950;2022-12-16T00:56:32;21.75;;;12.48;;
21330;SDS011;10824;51.632;4.950;2022-12-16T00:59:00;22.27;;;10.82;;
21330;SDS011;10824;51.632;4.950;2022-12-16T01:01:27;26.77;;;12.73;;
21330;SDS011;10824;51.632;4.950;2022-12-16T01:03:55;22.38;;;11.57;;
21330;SDS011;10824;51.632;4.950;2022-12-16T01:06:23;20.27;;;11.00;;
21330;SDS011;10824;51.632;4.950;2022-12-16T01:08:50;24.08;;;9.63;;
21330;SDS011;10824;51.632;4.950;2022-12-16T01:11:18;15.90;;;10.10;;
21330;SDS011;10824;51.632;4.950;2022-12-16T01:13:48;20.80;;;11.32;;
21330;SDS011;10824;51.632;4.950;2022-12-16T01:16:17;21.45;;;11.05;;
21330;SDS011;10824;51.632;4.950;2022-12-16T01:18:44;22.17;;;11.88;;
21330;SDS011;10824;51.632;4.950;2022-12-16T01:21:13;18.80;;;9.65;;
21330;SDS011;10824;51.632;4.950;2022-12-16T01:23:40;22.25;;;9.52;;
21330;SDS011;10824;51.632;4.950;2022-12-16T01:26:08;23.63;;;12.07;;
21330;SDS011;10824;51.632;4.950;2022-12-16T01:28:40;25.67;;;11.27;;
21330;SDS011;10824;51.632;4.950;2022-12-16T01:31:07;24.60;;;10.55;;
21330;SDS011;10824;51.632;4.950;2022-12-16T01:33:34;24.45;;;9.07;;
21330;SDS011;10824;51.632;4.950;2022-12-16T01:36:03;39.33;;;11.77;;
21330;SDS011;10824;51.632;4.950;2022-12-16T01:38:32;29.90;;;12.13;;
21330;SDS011;10824;51.632;4.950;2022-12-16T01:40:59;22.02;;;12.65;;
21330;SDS011;10824;51.632;4.950;2022-12-16T01:43:28;25.58;;;11.07;;
21330;SDS011;10824;51.632;4.950;2022-12-16T01:45:59;22.80;;;11.95;;
21330;SDS011;10824;51.632;4.950;2022-12-16T01:48:47;32.38;;;11.88;;
21330;SDS011;10824;51.632;4.950;2022-12-16T01:54:03;29.42;;;12.35;;
21330;SDS011;10824;51.632;4.950;2022-12-16T01:56:40;30.80;;;10.00;;
21330;SDS011;10824;51.632;4.950;2022-12-16T01:59:11;23.15;;;10.35;;
21330;SDS011;10824;51.632;4.950;2022-12-16T02:01:42;22.60;;;10.98;;
21330;SDS011;10824;51.632;4.950;2022-12-16T02:04:09;23.30;;;9.98;;
21330;SDS011;10824;51.632;4.950;2022-12-16T02:06:36;25.30;;;12.23;;
21330;SDS011;10824;51.632;4.950;2022-12-16T02:09:04;18.15;;;9.25;;
21330;SDS011;10824;51.632;4.950;2022-12-16T02:11:49;21.80;;;10.20;;
21330;SDS011;10824;51.632;4.950;2022-12-16T02:14:59;21.90;;;11.65;;
21330;SDS011;10824;51.632;4.950;2022-12-16T02:24:22;22.73;;;10.85;;
21330;SDS011;10824;51.632;4.950;2022-12-16T02:29:44;24.83;;;11.80;;
21330;SDS011;10824;51.632;4.950;2022-12-16T02:37:59;22.67;;;11.27;;
21330;SDS011;10824;51.632;4.950;2022-12-16T02:41:49;28.00;;;13.25;;
21330;SDS011;10824;51.632;4.950;2022-12-16T02:43:54;17.42;;;8.57;;
21330;SDS011;10824;51.632;4.950;2022-12-16T02:46:25;24.20;;;10.80;;
21330;SDS011;10824;51.632;4.950;2022-12-16T02:48:56;20.83;;;11.55;;
21330;SDS011;10824;51.632;4.950;2022-12-16T02:51:23;21.42;;;10.20;;
21330;SDS011;10824;51.632;4.950;2022-12-16T02:53:52;22.48;;;10.27;;
21330;SDS011;10824;51.632;4.950;2022-12-16T03:02:09;33.38;;;11.82;;
21330;SDS011;10824;51.632;4.950;2022-12-16T03:04:50;25.42;;;11.23;;
21330;SDS011;10824;51.632;4.950;2022-12-16T03:07:34;25.17;;;10.48;;
21330;SDS011;10824;51.632;4.950;2022-12-16T03:10:05;21.83;;;11.20;;
21330;SDS011;10824;51.632;4.950;2022-12-16T03:12:35;26.02;;;12.60;;
21330;SDS011;10824;51.632;4.950;2022-12-16T03:15:05;21.27;;;10.98;;
21330;SDS011;10824;51.632;4.950;2022-12-16T03:17:33;18.60;;;12.93;;
21330;SDS011;10824;51.632;4.950;2022-12-16T03:20:14;26.23;;;12.52;;
21330;SDS011;10824;51.632;4.950;2022-12-16T03:22:43;21.33;;;8.57;;
21330;SDS011;10824;51.632;4.950;2022-12-16T03:25:13;16.23;;;8.80;;
21330;SDS011;10824;51.632;4.950;2022-12-16T03:27:44;20.33;;;10.65;;
21330;SDS011;10824;51.632;4.950;2022-12-16T03:30:39;20.05;;;9.25;;
21330;SDS011;10824;51.632;4.950;2022-12-16T03:33:09;16.55;;;9.48;;
21330;SDS011;10824;51.632;4.950;2022-12-16T03:35:59;38.97;;;11.32;;
21330;SDS011;10824;51.632;4.950;2022-12-16T03:38:32;24.10;;;9.30;;
21330;SDS011;10824;51.632;4.950;2022-12-16T03:41:00;19.80;;;9.23;;
21330;SDS011;10824;51.632;4.950;2022-12-16T03:43:28;22.65;;;9.85;;
21330;SDS011;10824;51.632;4.950;2022-12-16T03:45:57;19.35;;;9.38;;
21330;SDS011;10824;51.632;4.950;2022-12-16T03:48:28;16.55;;;10.38;;
21330;SDS011;10824;51.632;4.950;2022-12-16T03:50:56;16.73;;;8.73;;
21330;SDS011;10824;51.632;4.950;2022-12-16T03:53:23;18.55;;;8.45;;
21330;SDS011;10824;51.632;4.950;2022-12-16T03:55:52;15.27;;;8.48;;
21330;SDS011;10824;51.632;4.950;2022-12-16T03:58:19;16.83;;;9.68;;
21330;SDS011;10824;51.632;4.950;2022-12-16T04:00:47;18.35;;;9.35;;
21330;SDS011;10824;51.632;4.950;2022-12-16T04:03:14;19.52;;;9.05;;
21330;SDS011;10824;51.632;4.950;2022-12-16T04:05:41;14.77;;;7.57;;
21330;SDS011;10824;51.632;4.950;2022-12-16T04:08:08;15.18;;;10.10;;
21330;SDS011;10824;51.632;4.950;2022-12-16T04:10:35;21.73;;;8.13;;
21330;SDS011;10824;51.632;4.950;2022-12-16T04:13:20;22.67;;;9.40;;
21330;SDS011;10824;51.632;4.950;2022-12-16T04:16:23;18.88;;;8.45;;
21330;SDS011;10824;51.632;4.950;2022-12-16T04:19:25;11.98;;;5.55;;
21330;SDS011;10824;51.632;4.950;2022-12-16T04:22:20;11.52;;;5.00;;
21330;SDS011;10824;51.632;4.950;2022-12-16T04:25:13;9.85;;;4.15;;
21330;SDS011;10824;51.632;4.950;2022-12-16T04:27:46;10.77;;;6.70;;
21330;SDS011;10824;51.632;4.950;2022-12-16T04:30:16;12.35;;;4.50;;
21330;SDS011;10824;51.632;4.950;2022-12-16T04:32:55;8.15;;;4.45;;
21330;SDS011;10824;51.632;4.950;2022-12-16T04:35:43;24.77;;;4.95;;
21330;SDS011;10824;51.632;4.950;2022-12-16T04:38:29;10.68;;;4.28;;
21330;SDS011;10824;51.632;4.950;2022-12-16T04:41:16;3.80;;;2.75;;
21330;SDS011;10824;51.632;4.950;2022-12-16T04:44:01;8.32;;;2.65;;
21330;SDS011;10824;51.632;4.950;2022-12-16T04:46:47;6.93;;;3.10;;
21330;SDS011;10824;51.632;4.950;2022-12-16T04:49:33;8.88;;;2.90;;
21330;SDS011;10824;51.632;4.950;2022-12-16T04:52:19;4.43;;;2.78;;
21330;SDS011;10824;51.632;4.950;2022-12-16T04:55:05;11.02;;;2.38;;
21330;SDS011;10824;51.632;4.950;2022-12-16T04:57:52;5.03;;;2.45;;
21330;SDS011;10824;51.632;4.950;2022-12-16T05:00:39;3.42;;;1.85;;
21330;SDS011;10824;51.632;4.950;2022-12-16T05:03:25;6.68;;;1.85;;
21330;SDS011;10824;51.632;4.950;2022-12-16T05:06:11;4.45;;;1.92;;
21330;SDS011;10824;51.632;4.950;2022-12-16T05:08:57;4.10;;;2.03;;
21330;SDS011;10824;51.632;4.950;2022-12-16T05:11:43;3.90;;;1.98;;
21330;SDS011;10824;51.632;4.950;2022-12-16T05:14:29;3.55;;;1.88;;
21330;SDS011;10824;51.632;4.950;2022-12-16T05:17:14;7.22;;;1.80;;
21330;SDS011;10824;51.632;4.950;2022-12-16T05:20:00;4.30;;;2.60;;
21330;SDS011;10824;51.632;4.950;2022-12-16T05:22:46;2.22;;;1.63;;
21330;SDS011;10824;51.632;4.950;2022-12-16T05:25:31;3.67;;;2.05;;
21330;SDS011;10824;51.632;4.950;2022-12-16T05:28:17;9.25;;;2.22;;
21330;SDS011;10824;51.632;4.950;2022-12-16T05:31:02;1.92;;;1.83;;
21330;SDS011;10824;51.632;4.950;2022-12-16T05:33:48;3.90;;;1.55;;
21330;SDS011;10824;51.632;4.950;2022-12-16T05:36:33;5.45;;;1.80;;
21330;SDS011;10824;51.632;4.950;2022-12-16T05:39:19;3.05;;;2.05;;
21330;SDS011;10824;51.632;4.950;2022-12-16T05:42:04;2.53;;;1.63;;
21330;SDS011;10824;51.632;4.950;2022-12-16T05:44:50;1.92;;;1.65;;
21330;SDS011;10824;51.632;4.950;2022-12-16T05:47:35;3.53;;;2.05;;
21330;SDS011;10824;51.632;4.950;2022-12-16T05:50:21;2.10;;;1.23;;
21330;SDS011;10824;51.632;4.950;2022-12-16T05:53:07;1.25;;;1.20;;
21330;SDS011;10824;51.632;4.950;2022-12-16T05:55:53;3.17;;;2.05;;
21330;SDS011;10824;51.632;4.950;2022-12-16T05:58:39;2.88;;;2.30;;
21330;SDS011;10824;51.632;4.950;2022-12-16T06:01:25;6.70;;;2.15;;
21330;SDS011;10824;51.632;4.950;2022-12-16T06:04:11;4.78;;;1.63;;
21330;SDS011;10824;51.632;4.950;2022-12-16T06:06:56;3.53;;;1.70;;
21330;SDS011;10824;51.632;4.950;2022-12-16T06:09:42;5.32;;;1.80;;
21330;SDS011;10824;51.632;4.950;2022-12-16T06:12:27;4.68;;;2.15;;
21330;SDS011;10824;51.632;4.950;2022-12-16T06:15:12;1.90;;;1.48;;
21330;SDS011;10824;51.632;4.950;2022-12-16T06:17:58;4.35;;;1.50;;
21330;SDS011;10824;51.632;4.950;2022-12-16T06:20:43;6.30;;;2.00;;
21330;SDS011;10824;51.632;4.950;2022-12-16T06:23:29;3.47;;;2.20;;
21330;SDS011;10824;51.632;4.950;2022-12-16T06:26:15;5.18;;;1.80;;
21330;SDS011;10824;51.632;4.950;2022-12-16T06:29:00;3.83;;;1.75;;
21330;SDS011;10824;51.632;4.950;2022-12-16T06:31:46;5.18;;;2.08;;
21330;SDS011;10824;51.632;4.950;2022-12-16T06:34:31;8.00;;;2.35;;
21330;SDS011;10824;51.632;4.950;2022-12-16T06:37:17;4.15;;;3.20;;
21330;SDS011;10824;51.632;4.950;2022-12-16T06:40:03;3.08;;;2.03;;
21330;SDS011;10824;51.632;4.950;2022-12-16T06:42:48;5.28;;;2.38;;
21330;SDS011;10824;51.632;4.950;2022-12-16T06:45:34;6.63;;;2.80;;
21330;SDS011;10824;51.632;4.950;2022-12-16T06:48:20;3.05;;;1.80;;
21330;SDS011;10824;51.632;4.950;2022-12-16T06:51:05;4.15;;;2.70;;
21330;SDS011;10824;51.632;4.950;2022-12-16T06:53:51;5.18;;;2.40;;
21330;SDS011;10824;51.632;4.950;2022-12-16T06:56:37;6.25;;;2.47;;
21330;SDS011;10824;51.632;4.950;2022-12-16T06:59:23;6.53;;;1.92;;
21330;SDS011;10824;51.632;4.950;2022-12-16T07:02:09;3.13;;;2.35;;
21330;SDS011;10824;51.632;4.950;2022-12-16T07:04:55;6.68;;;2.40;;
21330;SDS011;10824;51.632;4.950;2022-12-16T07:07:47;2.35;;;1.75;;
21330;SDS011;10824;51.632;4.950;2022-12-16T07:10:34;6.05;;;1.95;;
21330;SDS011;10824;51.632;4.950;2022-12-16T07:13:21;6.15;;;2.97;;
21330;SDS011;10824;51.632;4.950;2022-12-16T07:16:06;5.07;;;2.53;;
21330;SDS011;10824;51.632;4.950;2022-12-16T07:18:52;4.15;;;2.75;;
21330;SDS011;10824;51.632;4.950;2022-12-16T07:21:38;6.53;;;2.90;;
21330;SDS011;10824;51.632;4.950;2022-12-16T07:24:23;6.72;;;4.07;;
21330;SDS011;10824;51.632;4.950;2022-12-16T07:27:09;18.13;;;6.55;;
21330;SDS011;10824;51.632;4.950;2022-12-16T07:29:54;10.45;;;6.05;;
21330;SDS011;10824;51.632;4.950;2022-12-16T07:32:40;11.00;;;6.15;;
21330;SDS011;10824;51.632;4.950;2022-12-16T07:35:25;8.98;;;5.50;;
21330;SDS011;10824;51.632;4.950;2022-12-16T07:38:11;5.88;;;3.30;;
21330;SDS011;10824;51.632;4.950;2022-12-16T07:40:57;5.70;;;3.15;;
21330;SDS011;10824;51.632;4.950;2022-12-16T07:43:42;11.13;;;4.47;;
21330;SDS011;10824;51.632;4.950;2022-12-16T07:46:28;5.10;;;2.60;;
21330;SDS011;10824;51.632;4.950;2022-12-16T07:49:13;10.73;;;3.35;;
21330;SDS011;10824;51.632;4.950;2022-12-16T07:51:59;5.32;;;3.20;;
21330;SDS011;10824;51.632;4.950;2022-12-16T07:54:49;3.45;;;2.50;;
21330;SDS011;10824;51.632;4.950;2022-12-16T07:57:35;5.43;;;4.43;;
21330;SDS011;10824;51.632;4.950;2022-12-16T08:00:20;5.57;;;3.83;;
21330;SDS011;10824;51.632;4.950;2022-12-16T08:03:06;8.98;;;4.15;;
21330;SDS011;10824;51.632;4.950;2022-12-16T08:05:52;9.77;;;3.95;;
21330;SDS011;10824;51.632;4.950;2022-12-16T08:08:37;5.60;;;3.45;;
21330;SDS011;10824;51.632;4.950;2022-12-16T08:11:23;5.22;;;3.38;;
21330;SDS011;10824;51.632;4.950;2022-12-16T08:14:08;5.80;;;3.10;;
21330;SDS011;10824;51.632;4.950;2022-12-16T08:16:54;6.07;;;2.85;;
21330;SDS011;10824;51.632;4.950;2022-12-16T08:19:40;6.95;;;2.55;;
21330;SDS011;10824;51.632;4.950;2022-12-16T08:22:26;5.75;;;3.85;;
21330;SDS011;10824;51.632;4.950;2022-12-16T08:25:12;8.57;;;2.80;;
21330;SDS011;10824;51.632;4.950;2022-12-16T08:27:57;8.63;;;3.03;;
21330;SDS011;10824;51.632;4.950;2022-12-16T08:30:43;5.45;;;3.17;;
21330;SDS011;10824;51.632;4.950;2022-12-16T08:33:34;8.40;;;2.83;;
21330;SDS011;10824;51.632;4.950;2022-12-16T08:36:21;8.77;;;2.72;;
21330;SDS011;10824;51.632;4.950;2022-12-16T08:39:06;5.78;;;3.10;;
21330;SDS011;10824;51.632;4.950;2022-12-16T08:41:52;6.45;;;2.45;;
21330;SDS011;10824;51.632;4.950;2022-12-16T08:44:38;5.18;;;2.85;;
21330;SDS011;10824;51.632;4.950;2022-12-16T08:47:23;7.38;;;2.42;;
21330;SDS011;10824;51.632;4.950;2022-12-16T08:50:09;4.57;;;2.25;;
21330;SDS011;10824;51.632;4.950;2022-12-16T08:52:55;4.68;;;1.92;;
21330;SDS011;10824;51.632;4.950;2022-12-16T08:55:41;5.38;;;2.75;;
21330;SDS011;10824;51.632;4.950;2022-12-16T08:58:26;5.97;;;2.78;;
21330;SDS011;10824;51.632;4.950;2022-12-16T09:01:12;4.35;;;1.40;;
21330;SDS011;10824;51.632;4.950;2022-12-16T09:03:57;6.40;;;2.35;;
21330;SDS011;10824;51.632;4.950;2022-12-16T09:06:43;3.28;;;2.67;;
21330;SDS011;10824;51.632;4.950;2022-12-16T09:09:28;2.15;;;1.65;;
21330;SDS011;10824;51.632;4.950;2022-12-16T09:12:14;7.97;;;2.40;;
21330;SDS011;10824;51.632;4.950;2022-12-16T09:15:00;4.50;;;1.80;;
21330;SDS011;10824;51.632;4.950;2022-12-16T09:17:51;4.88;;;2.17;;
21330;SDS011;10824;51.632;4.950;2022-12-16T09:23:24;6.25;;;3.13;;
21330;SDS011;10824;51.632;4.950;2022-12-16T09:26:09;6.55;;;2.28;;
21330;SDS011;10824;51.632;4.950;2022-12-16T09:28:55;4.07;;;2.30;;
21330;SDS011;10824;51.632;4.950;2022-12-16T09:31:40;4.00;;;2.35;;
21330;SDS011;10824;51.632;4.950;2022-12-16T09:34:26;8.13;;;2.65;;
21330;SDS011;10824;51.632;4.950;2022-12-16T09:37:15;2.00;;;1.80;;
21330;SDS011;10824;51.632;4.950;2022-12-16T09:40:00;4.20;;;2.25;;
21330;SDS011;10824;51.632;4.950;2022-12-16T09:46:16;4.65;;;1.98;;
21330;SDS011;10824;51.632;4.950;2022-12-16T09:51:58;3.28;;;2.05;;
21330;SDS011;10824;51.632;4.950;2022-12-16T09:54:46;5.82;;;2.22;;
21330;SDS011;10824;51.632;4.950;2022-12-16T09:57:33;2.38;;;1.75;;
21330;SDS011;10824;51.632;4.950;2022-12-16T10:00:22;7.30;;;2.35;;
21330;SDS011;10824;51.632;4.950;2022-12-16T10:03:18;4.80;;;1.70;;
21330;SDS011;10824;51.632;4.950;2022-12-16T10:06:28;4.35;;;1.73;;
21330;SDS011;10824;51.632;4.950;2022-12-16T10:09:33;5.03;;;2.25;;
21330;SDS011;10824;51.632;4.950;2022-12-16T10:19:16;11.75;;;2.97;;
21330;SDS011;10824;51.632;4.950;2022-12-16T10:25:16;10.95;;;2.33;;
21330;SDS011;10824;51.632;4.950;2022-12-16T10:28:17;6.65;;;2.88;;
21330;SDS011;10824;51.632;4.950;2022-12-16T10:31:13;4.38;;;2.65;;
21330;SDS011;10824;51.632;4.950;2022-12-16T10:34:01;6.07;;;2.15;;
21330;SDS011;10824;51.632;4.950;2022-12-16T10:36:53;4.85;;;1.73;;
21330;SDS011;10824;51.632;4.950;2022-12-16T10:39:48;6.22;;;2.53;;
21330;SDS011;10824;51.632;4.950;2022-12-16T10:42:44;6.25;;;2.30;;
21330;SDS011;10824;51.632;4.950;2022-12-16T10:45:34;2.95;;;1.42;;
21330;SDS011;10824;51.632;4.950;2022-12-16T10:48:28;21.98;;;4.25;;
21330;SDS011;10824;51.632;4.950;2022-12-16T10:51:22;3.65;;;2.17;;
21330;SDS011;10824;51.632;4.950;2022-12-16T10:54:34;8.38;;;2.80;;
21330;SDS011;10824;51.632;4.950;2022-12-16T10:57:44;8.48;;;2.97;;
21330;SDS011;10824;51.632;4.950;2022-12-16T11:01:00;6.63;;;2.28;;
21330;SDS011;10824;51.632;4.950;2022-12-16T11:07:35;4.22;;;2.55;;
21330;SDS011;10824;51.632;4.950;2022-12-16T11:16:11;3.17;;;1.60;;
21330;SDS011;10824;51.632;4.950;2022-12-16T11:22:22;6.10;;;2.50;;
21330;SDS011;10824;51.632;4.950;2022-12-16T11:28:08;3.33;;;1.77;;
21330;SDS011;10824;51.632;4.950;2022-12-16T11:30:58;7.78;;;2.25;;
21330;SDS011;10824;51.632;4.950;2022-12-16T11:34:06;4.80;;;2.00;;
21330;SDS011;10824;51.632;4.950;2022-12-16T11:36:53;4.85;;;2.10;;
21330;SDS011;10824;51.632;4.950;2022-12-16T11:39:49;4.65;;;2.83;;
21330;SDS011;10824;51.632;4.950;2022-12-16T11:42:35;4.10;;;1.50;;
21330;SDS011;10824;51.632;4.950;2022-12-16T11:45:22;4.32;;;1.98;;
21330;SDS011;10824;51.632;4.950;2022-12-16T11:48:16;5.13;;;1.95;;
21330;SDS011;10824;51.632;4.950;2022-12-16T11:51:21;2.80;;;1.42;;
21330;SDS011;10824;51.632;4.950;2022-12-16T11:54:14;5.07;;;2.17;;
21330;SDS011;10824;51.632;4.950;2022-12-16T11:57:06;5.85;;;1.63;;
21330;SDS011;10824;51.632;4.950;2022-12-16T12:00:03;6.32;;;1.95;;
21330;SDS011;10824;51.632;4.950;2022-12-16T12:03:07;4.47;;;2.55;;
21330;SDS011;10824;51.632;4.950;2022-12-16T12:12:13;4.88;;;2.28;;
21330;SDS011;10824;51.632;4.950;2022-12-16T12:15:28;3.28;;;1.90;;
21330;SDS011;10824;51.632;4.950;2022-12-16T12:27:32;3.10;;;2.10;;
21330;SDS011;10824;51.632;4.950;2022-12-16T12:30:27;3.97;;;1.40;;
21330;SDS011;10824;51.632;4.950;2022-12-16T12:45:50;2.03;;;1.83;;
21330;SDS011;10824;51.632;4.950;2022-12-16T12:49:00;4.72;;;1.70;;
21330;SDS011;10824;51.632;4.950;2022-12-16T12:55:00;8.77;;;3.17;;
21330;SDS011;10824;51.632;4.950;2022-12-16T12:58:05;4.72;;;2.63;;
21330;SDS011;10824;51.632;4.950;2022-12-16T13:00:51;3.75;;;2.08;;
21330;SDS011;10824;51.632;4.950;2022-12-16T13:06:36;6.53;;;2.70;;
21330;SDS011;10824;51.632;4.950;2022-12-16T13:09:29;4.68;;;2.28;;
21330;SDS011;10824;51.632;4.950;2022-12-16T13:12:21;2.53;;;1.73;;
21330;SDS011;10824;51.632;4.950;2022-12-16T13:15:46;5.53;;;2.60;;
21330;SDS011;10824;51.632;4.950;2022-12-16T13:18:32;3.53;;;2.45;;
21330;SDS011;10824;51.632;4.950;2022-12-16T13:27:14;6.13;;;3.05;;
21330;SDS011;10824;51.632;4.950;2022-12-16T13:30:17;4.43;;;2.58;;
21330;SDS011;10824;51.632;4.950;2022-12-16T13:33:06;9.40;;;2.33;;
21330;SDS011;10824;51.632;4.950;2022-12-16T13:36:05;14.48;;;3.40;;
21330;SDS011;10824;51.632;4.950;2022-12-16T13:38:53;3.13;;;1.80;;
21330;SDS011;10824;51.632;4.950;2022-12-16T13:47:33;3.05;;;2.53;;
21330;SDS011;10824;51.632;4.950;2022-12-16T13:53:32;4.65;;;1.77;;
21330;SDS011;10824;51.632;4.950;2022-12-16T13:56:34;5.20;;;2.75;;
21330;SDS011;10824;51.632;4.950;2022-12-16T13:59:29;5.28;;;2.63;;
21330;SDS011;10824;51.632;4.950;2022-12-16T14:02:34;6.22;;;3.80;;
21330;SDS011;10824;51.632;4.950;2022-12-16T14:05:26;11.35;;;4.40;;
21330;SDS011;10824;51.632;4.950;2022-12-16T14:08:17;9.93;;;3.45;;
21330;SDS011;10824;51.632;4.950;2022-12-16T14:11:06;4.72;;;2.83;;
21330;SDS011;10824;51.632;4.950;2022-12-16T14:14:26;4.68;;;2.15;;
21330;SDS011;10824;51.632;4.950;2022-12-16T14:17:24;4.72;;;3.15;;
21330;SDS011;10824;51.632;4.950;2022-12-16T14:20:34;4.05;;;2.35;;
21330;SDS011;10824;51.632;4.950;2022-12-16T14:23:40;3.50;;;2.28;;
21330;SDS011;10824;51.632;4.950;2022-12-16T14:26:36;3.72;;;2.17;;
21330;SDS011;10824;51.632;4.950;2022-12-16T14:29:25;4.20;;;2.20;;
21330;SDS011;10824;51.632;4.950;2022-12-16T14:35:17;4.40;;;2.45;;
21330;SDS011;10824;51.632;4.950;2022-12-16T14:38:20;6.18;;;2.95;;
21330;SDS011;10824;51.632;4.950;2022-12-16T14:41:10;4.63;;;2.42;;
21330;SDS011;10824;51.632;4.950;2022-12-16T14:43:57;3.85;;;2.55;;
21330;SDS011;10824;51.632;4.950;2022-12-16T14:46:47;5.95;;;2.55;;
21330;SDS011;10824;51.632;4.950;2022-12-16T14:49:34;5.63;;;2.05;;
21330;SDS011;10824;51.632;4.950;2022-12-16T14:52:23;9.00;;;2.35;;
21330;SDS011;10824;51.632;4.950;2022-12-16T14:55:17;4.75;;;2.50;;
21330;SDS011;10824;51.632;4.950;2022-12-16T15:01:27;6.40;;;3.80;;
21330;SDS011;10824;51.632;4.950;2022-12-16T15:04:13;6.55;;;3.70;;
21330;SDS011;10824;51.632;4.950;2022-12-16T15:07:03;8.15;;;2.88;;
21330;SDS011;10824;51.632;4.950;2022-12-16T15:09:57;19.80;;;2.88;;
21330;SDS011;10824;51.632;4.950;2022-12-16T15:12:44;7.05;;;3.22;;
21330;SDS011;10824;51.632;4.950;2022-12-16T15:15:37;9.82;;;2.75;;
21330;SDS011;10824;51.632;4.950;2022-12-16T15:18:33;4.35;;;2.80;;
21330;SDS011;10824;51.632;4.950;2022-12-16T15:21:23;7.63;;;3.60;;
21330;SDS011;10824;51.632;4.950;2022-12-16T15:24:19;4.20;;;2.42;;
21330;SDS011;10824;51.632;4.950;2022-12-16T15:33:31;7.13;;;2.78;;
21330;SDS011;10824;51.632;4.950;2022-12-16T15:36:22;6.38;;;2.38;;
21330;SDS011;10824;51.632;4.950;2022-12-16T15:42:05;5.07;;;2.47;;
21330;SDS011;10824;51.632;4.950;2022-12-16T15:45:51;9.13;;;2.95;;
21330;SDS011;10824;51.632;4.950;2022-12-16T15:48:29;5.38;;;3.08;;
21330;SDS011;10824;51.632;4.950;2022-12-16T15:57:29;5.10;;;3.08;;
21330;SDS011;10824;51.632;4.950;2022-12-16T16:00:18;7.05;;;3.22;;
21330;SDS011;10824;51.632;4.950;2022-12-16T16:03:29;8.40;;;3.80;;
21330;SDS011;10824;51.632;4.950;2022-12-16T16:06:18;6.20;;;4.38;;
21330;SDS011;10824;51.632;4.950;2022-12-16T16:11:58;5.18;;;2.90;;
21330;SDS011;10824;51.632;4.950;2022-12-16T16:14:45;9.07;;;3.95;;
21330;SDS011;10824;51.632;4.950;2022-12-16T16:17:31;5.63;;;3.30;;
21330;SDS011;10824;51.632;4.950;2022-12-16T16:20:17;5.53;;;3.67;;
21330;SDS011;10824;51.632;4.950;2022-12-16T16:23:03;7.72;;;3.65;;
21330;SDS011;10824;51.632;4.950;2022-12-16T16:25:50;11.25;;;4.35;;
21330;SDS011;10824;51.632;4.950;2022-12-16T16:28:35;7.03;;;3.90;;
21330;SDS011;10824;51.632;4.950;2022-12-16T16:31:21;8.75;;;4.47;;
21330;SDS011;10824;51.632;4.950;2022-12-16T16:34:07;6.90;;;4.28;;
21330;SDS011;10824;51.632;4.950;2022-12-16T16:36:54;7.57;;;4.03;;
21330;SDS011;10824;51.632;4.950;2022-12-16T16:39:42;8.40;;;3.53;;
21330;SDS011;10824;51.632;4.950;2022-12-16T16:42:29;8.95;;;4.00;;
21330;SDS011;10824;51.632;4.950;2022-12-16T16:45:14;6.47;;;5.00;;
21330;SDS011;10824;51.632;4.950;2022-12-16T16:48:05;7.82;;;4.13;;
21330;SDS011;10824;51.632;4.950;2022-12-16T16:50:56;11.10;;;4.88;;
21330;SDS011;10824;51.632;4.950;2022-12-16T16:53:42;8.35;;;4.20;;
21330;SDS011;10824;51.632;4.950;2022-12-16T16:56:30;7.97;;;3.33;;
21330;SDS011;10824;51.632;4.950;2022-12-16T16:59:21;12.00;;;6.03;;
21330;SDS011;10824;51.632;4.950;2022-12-16T17:02:18;9.23;;;4.57;;
21330;SDS011;10824;51.632;4.950;2022-12-16T17:05:07;10.48;;;6.15;;
21330;SDS011;10824;51.632;4.950;2022-12-16T17:07:54;11.98;;;5.60;;
21330;SDS011;10824;51.632;4.950;2022-12-16T17:10:40;15.35;;;5.80;;
21330;SDS011;10824;51.632;4.950;2022-12-16T17:13:26;13.55;;;5.68;;
21330;SDS011;10824;51.632;4.950;2022-12-16T17:16:12;18.65;;;8.02;;
21330;SDS011;10824;51.632;4.950;2022-12-16T17:18:58;17.00;;;7.43;;
21330;SDS011;10824;51.632;4.950;2022-12-16T17:21:44;29.45;;;10.60;;
21330;SDS011;10824;51.632;4.950;2022-12-16T17:24:30;36.28;;;12.32;;
21330;SDS011;10824;51.632;4.950;2022-12-16T17:27:21;25.30;;;10.25;;
21330;SDS011;10824;51.632;4.950;2022-12-16T17:30:13;26.38;;;11.13;;
21330;SDS011;10824;51.632;4.950;2022-12-16T17:33:01;20.27;;;10.38;;
21330;SDS011;10824;51.632;4.950;2022-12-16T17:35:47;17.08;;;8.52;;
21330;SDS011;10824;51.632;4.950;2022-12-16T17:38:37;17.52;;;9.60;;
21330;SDS011;10824;51.632;4.950;2022-12-16T17:41:25;20.30;;;8.98;;
21330;SDS011;10824;51.632;4.950;2022-12-16T17:44:11;21.25;;;8.13;;
21330;SDS011;10824;51.632;4.950;2022-12-16T17:46:57;15.77;;;7.68;;
21330;SDS011;10824;51.632;4.950;2022-12-16T17:49:43;25.08;;;9.35;;
21330;SDS011;10824;51.632;4.950;2022-12-16T17:52:28;15.15;;;7.90;;
21330;SDS011;10824;51.632;4.950;2022-12-16T17:55:14;20.13;;;8.15;;
21330;SDS011;10824;51.632;4.950;2022-12-16T17:58:00;16.58;;;8.07;;
21330;SDS011;10824;51.632;4.950;2022-12-16T18:00:45;13.85;;;7.10;;
21330;SDS011;10824;51.632;4.950;2022-12-16T18:03:31;19.85;;;7.00;;
21330;SDS011;10824;51.632;4.950;2022-12-16T18:06:17;14.57;;;6.75;;
21330;SDS011;10824;51.632;4.950;2022-12-16T18:09:02;19.73;;;8.93;;
21330;SDS011;10824;51.632;4.950;2022-12-16T18:11:48;17.02;;;7.50;;
21330;SDS011;10824;51.632;4.950;2022-12-16T18:14:34;22.77;;;8.07;;
21330;SDS011;10824;51.632;4.950;2022-12-16T18:17:33;20.25;;;10.60;;
21330;SDS011;10824;51.632;4.950;2022-12-16T18:20:19;13.77;;;6.72;;
21330;SDS011;10824;51.632;4.950;2022-12-16T18:23:06;16.63;;;7.25;;
21330;SDS011;10824;51.632;4.950;2022-12-16T18:25:55;16.92;;;9.40;;
21330;SDS011;10824;51.632;4.950;2022-12-16T18:28:42;16.70;;;8.70;;
21330;SDS011;10824;51.632;4.950;2022-12-16T18:31:28;13.88;;;7.03;;
21330;SDS011;10824;51.632;4.950;2022-12-16T18:34:14;14.75;;;8.30;;
21330;SDS011;10824;51.632;4.950;2022-12-16T18:37:00;21.58;;;8.23;;